• Join FlightAware (Why Join?)
  • Login
  • US Flag 
01:39AM EDT


 

Airport Tracker/Info


-or-


 

Live Flight TrackerFlight Track Log ✈ UPS77 ✈ 08-May-2013 ✈ PANC - KONT

Flight Track Log - Related Links

Times and Time Zones

All times are in EDT time to prevent confusion due to time zone crossing. See the UPS77 flight status page for this flight to view local times or setup timezone preferences in your user account.

Time Position Orientation Groundspeed Altitude Reporting Facility
EDT Latitude Longitude Course Direction KTS MPH feet Rate Location/Type
11:45PM 61.1850 -150.0060 44° Northeast 148 170  Level FlightAware
11:45PM 61.2020 -150.0160 344° North 154 177 900 2,100 Climbing FlightAware
11:46PM 61.2120 -150.0290 328° Northwest 158 182 1,400 2,400 Climbing FlightAware
11:46PM 61.2250 -150.0530 318° Northwest 161 185 2,500 2,220 Climbing FlightAware
11:46PM 61.2260 -150.0790 275° West 171 197 2,900 1,440 Climbing FlightAware
11:46PM 61.2260 -150.0920 270° West 177 204 3,100 960 Climbing FlightAware
11:47PM 61.2210 -150.1240 252° West 212 244 3,400 1,320 Climbing FlightAware
11:47PM 61.2050 -150.1420 208° Southwest 235 270 3,900 2,160 Climbing FlightAware
11:47PM 61.1870 -150.1470 188° South 256 295 4,500 3,120 Climbing FlightAware
11:48PM 61.1580 -150.1560 189° South 267 307 6,000 3,900 Climbing FlightAware
11:48PM 61.1220 -150.1640 186° South 267 307 8,100 3,780 Climbing FlightAware
11:49PM 61.0890 -150.1600 177° South 278 320 9,500 3,120 Climbing FlightAware
11:49PM 61.0740 -150.1400 147° Southeast 289 333 10,200 2,280 Climbing FlightAware
11:50PM 61.0280 -150.0700 144° Southeast 336 387 11,600 2,400 Climbing FlightAware
11:50PM 60.9720 -149.9650 138° Southeast 369 425 13,600 2,820 Climbing FlightAware
11:51PM 60.9270 -149.8540 130° Southeast 384 442 15,600 2,640 Climbing FlightAware
11:52PM 60.8740 -149.7230 130° Southeast 409 471 17,400 1,980 Climbing FlightAware
11:52PM 60.8370 -149.6290 129° Southeast 438 504 18,100 1,920 Climbing FlightAware
11:53PM 60.7650 -149.4480 129° Southeast 460 529 20,200 1,980 Climbing FlightAware
11:55PM 60.6200 -149.0930 130° Southeast 497 572 23,400 1,980 Climbing FlightAware
11:56PM 60.5490 -148.9200 130° Southeast 507 583 25,200 2,460 Climbing FlightAware
11:56PM 60.4780 -148.7520 131° Southeast 507 583 27,100 1,620 Climbing FlightAware
11:57PM 60.4270 -148.6280 130° Southeast 510 587 27,500 2,520 Climbing FlightAware
11:58PM 60.3520 -148.4500 130° Southeast 498 573 30,700 2,400 Climbing FlightAware
11:58PM 60.3060 -148.3380 130° Southeast 498 573 30,700 2,280 Level FlightAware
11:59PM 60.2390 -148.1840 131° Southeast 479 551 33,800 3,120 Climbing FlightAware
12:00AM 60.1720 -148.0280 131° Southeast 472 543 35,400 1,920 Climbing FlightAware
12:00AM 60.1210 -147.9120 131° Southeast 471 542 36,400 720 Climbing FlightAware
12:01AM 60.0650 -147.7780 130° Southeast 471 542 36,400 660 Level FlightAware
12:02AM 60.0080 -147.6480 131° Southeast 471 542 37,400 720 Climbing FlightAware
12:03AM 59.9610 -147.5350 130° Southeast 471 542 37,400  Level FlightAware
12:03AM 59.9010 -147.3930 130° Southeast 471 542 37,400  Level FlightAware
12:04AM 59.8530 -147.2800 130° Southeast 471 542 37,400  Level FlightAware
12:05AM 59.8060 -147.1670 130° Southeast 471 542 37,400  Level FlightAware
12:05AM 59.7580 -147.0550 130° Southeast 471 542 37,400  Level FlightAware
12:06AM 59.7100 -146.9420 130° Southeast 471 542 37,400  Level FlightAware
12:07AM 59.6510 -146.8020 130° Southeast 471 542 37,400  Level FlightAware
12:08AM 59.6030 -146.6890 130° Southeast 471 542 37,400  Level FlightAware
12:08AM 59.5560 -146.5770 130° Southeast 471 542 37,400  Level FlightAware
12:09AM 59.5080 -146.4650 130° Southeast 471 542 37,400  Level FlightAware
12:10AM 59.4600 -146.3540 130° Southeast 471 542 37,400  Level FlightAware
12:10AM 59.4010 -146.2140 130° Southeast 471 542 37,400  Level FlightAware
12:11AM 59.3530 -146.1030 130° Southeast 471 542 37,400 1,140 Level FlightAware
12:12AM 59.1333 -145.6667 130° Southeast 480 552 39,000 900 Climbing Anchorage Center
12:13AM 59.0500 -145.4667 129° Southeast 470 541 39,000  Level Anchorage Center
12:14AM 58.9500 -145.2667 134° Southeast 480 552 39,000  Level Anchorage Center
12:15AM 58.8667 -145.0667 129° Southeast 470 541 39,000  Level Anchorage Center
12:16AM 58.7833 -144.8667 129° Southeast 480 552 39,000  Level Anchorage Center
12:17AM 58.7000 -144.6833 131° Southeast 480 552 39,000  Level Anchorage Center
12:18AM 58.6167 -144.4833 129° Southeast 480 552 39,000  Level Anchorage Center
12:19AM 58.5167 -144.2833 134° Southeast 480 552 39,000  Level Anchorage Center
12:20AM 58.4333 -144.1000 131° Southeast 470 541 39,000  Level Anchorage Center
12:21AM 58.3500 -143.9167 131° Southeast 470 541 39,000  Level Anchorage Center
12:22AM 58.2667 -143.7167 128° Southeast 460 529 39,000  Level Anchorage Center
12:23AM 58.1833 -143.5333 131° Southeast 470 541 39,000  Level Anchorage Center
12:24AM 58.0833 -143.3500 136° Southeast 460 529 39,000  Level Anchorage Center
12:25AM 58.0000 -143.1667 131° Southeast 460 529 39,000  Level Anchorage Center
12:26AM 57.9167 -142.9833 131° Southeast 470 541 39,000  Level Anchorage Center
12:27AM 57.8167 -142.8000 136° Southeast 470 541 39,000  Level Anchorage Center
12:28AM 57.7333 -142.6167 130° Southeast 470 541 39,000  Level Anchorage Center
12:29AM 57.6500 -142.4333 130° Southeast 470 541 39,000  Level Anchorage Center
12:30AM 57.5667 -142.2667 133° Southeast 460 529 39,000  Level Anchorage Center
12:31AM 57.4667 -142.0833 135° Southeast 470 541 39,000  Level Anchorage Center
12:32AM 57.3833 -141.9167 133° Southeast 460 529 39,000  Level Anchorage Center
12:33AM 57.3000 -141.7333 130° Southeast 460 529 39,000  Level Anchorage Center
12:34AM 57.2000 -141.5500 135° Southeast 470 541 39,000  Level Anchorage Center
12:35AM 57.1167 -141.3833 133° Southeast 470 541 39,000  Level Anchorage Center
12:36AM 57.0333 -141.2000 130° Southeast 470 541 39,000  Level Anchorage Center
12:37AM 56.9333 -141.0333 138° Southeast 470 541 39,000  Level Anchorage Center
12:38AM 56.8500 -140.8500 130° Southeast 470 541 39,000  Level Anchorage Center
12:39AM 56.7500 -140.6667 135° Southeast 470 541 39,000  Level Anchorage Center
12:40AM 56.6667 -140.5167 135° Southeast 460 529 39,000  Level Anchorage Center
12:41AM 56.5667 -140.3500 137° Southeast 460 529 39,000  Level Anchorage Center
12:42AM 56.4833 -140.1833 132° Southeast 470 541 39,000  Level Anchorage Center
12:43AM 56.3833 -140.0167 137° Southeast 470 541 39,000  Level Anchorage Center
12:44AM 56.3000 -139.8500 132° Southeast 470 541 39,000  Level Anchorage Center
12:45AM 56.2000 -139.6833 137° Southeast 470 541 39,000  Level Anchorage Center
12:46AM 56.1167 -139.5167 132° Southeast 460 529 39,000  Level Anchorage Center
12:47AM 56.0333 -139.4667 161° South 470 541 39,000  Level Vancouver Center
12:48AM 55.9500 -139.3000 132° Southeast 470 541 39,000  Level Vancouver Center
12:49AM 55.8500 -139.1500 140° Southeast 470 541 39,000  Level Vancouver Center
12:50AM 55.7500 -138.9833 137° Southeast 470 541 39,000  Level Vancouver Center
12:51AM 55.6833 -138.8000 123° Southeast 470 541 39,000  Level Vancouver Center
12:52AM 55.5833 -138.6500 140° Southeast 470 541 39,000  Level Vancouver Center
12:53AM 55.4833 -138.4833 137° Southeast 470 541 39,000  Level Vancouver Center
12:54AM 55.4000 -138.3333 134° Southeast 470 541 39,000  Level Vancouver Center
12:55AM 55.3000 -138.1833 139° Southeast 460 529 39,000  Level Vancouver Center
12:56AM 55.2167 -138.0167 131° Southeast 470 541 39,000  Level Vancouver Center
12:57AM 55.1167 -137.8500 136° Southeast 470 541 39,000  Level Vancouver Center
12:58AM 55.0167 -137.7000 139° Southeast 470 541 39,000  Level Vancouver Center
12:59AM 54.9000 -137.5500 144° Southeast 470 541 39,000  Level Vancouver Center
01:00AM 54.8333 -137.3833 125° Southeast 480 552 39,000  Level Vancouver Center
01:01AM 54.7167 -137.2167 140° Southeast 470 541 39,000  Level Vancouver Center
01:02AM 54.6333 -137.0833 137° Southeast 470 541 39,000  Level Vancouver Center
01:03AM 54.5333 -136.9333 139° Southeast 470 541 39,000  Level Vancouver Center
01:04AM 54.4333 -136.7500 133° Southeast 470 541 39,000  Level Vancouver Center
01:05AM 54.3500 -136.6167 137° Southeast 470 541 39,000  Level Vancouver Center
01:06AM 54.2333 -136.4667 143° Southeast 480 552 39,000  Level Vancouver Center
01:07AM 54.1333 -136.2833 133° Southeast 470 541 39,000  Level Vancouver Center
01:08AM 54.0500 -136.1500 137° Southeast 470 541 39,000  Level Vancouver Center
01:09AM 53.9333 -136.0000 143° Southeast 470 541 39,000  Level Vancouver Center
01:10AM 53.8333 -135.8833 145° Southeast 470 541 39,000  Level Vancouver Center
01:11AM 53.7333 -135.7333 138° Southeast 470 541 39,000  Level Vancouver Center
01:12AM 53.6167 -135.6167 149° Southeast 470 541 39,000  Level Vancouver Center
01:13AM 53.5000 -135.4833 146° Southeast 470 541 39,000  Level Vancouver Center
01:14AM 53.4167 -135.3667 140° Southeast 460 529 39,000  Level Vancouver Center
01:15AM 53.3000 -135.2500 149° Southeast 470 541 39,000  Level Vancouver Center
01:16AM 53.2000 -135.1167 141° Southeast 460 529 39,000  Level Vancouver Center
01:17AM 53.1000 -135.0000 145° Southeast 460 529 39,000  Level Vancouver Center
01:18AM 52.9833 -134.8833 149° Southeast 460 529 39,000  Level Vancouver Center
01:19AM 52.8833 -134.7833 149° Southeast 460 529 39,000  Level Vancouver Center
01:20AM 52.7667 -134.6500 145° Southeast 460 529 39,000  Level Vancouver Center
01:21AM 52.6833 -134.5333 140° Southeast 460 529 39,000  Level Vancouver Center
01:22AM 52.5667 -134.4000 145° Southeast 460 529 39,000  Level Vancouver Center
01:23AM 52.4667 -134.2833 145° Southeast 470 541 39,000  Level Vancouver Center
01:24AM 52.3500 -134.1833 152° Southeast 470 541 39,000  Level Vancouver Center
01:25AM 52.2333 -134.0500 145° Southeast 470 541 39,000  Level Vancouver Center
01:26AM 52.1333 -133.9333 144° Southeast 470 541 39,000  Level Vancouver Center
01:27AM 52.0167 -133.8000 145° Southeast 470 541 39,000  Level Vancouver Center
01:28AM 51.9167 -133.7000 148° Southeast 470 541 39,000  Level Vancouver Center
01:29AM 51.8000 -133.6000 152° Southeast 470 541 39,000  Level Vancouver Center
01:30AM 51.7167 -133.4667 135° Southeast 460 529 39,000  Level Vancouver Center
01:31AM 51.5833 -133.3500 151° Southeast 460 529 39,000  Level Vancouver Center
01:32AM 51.5000 -133.2500 143° Southeast 460 529 39,000  Level Vancouver Center
01:33AM 51.3833 -133.1333 148° Southeast 460 529 39,000  Level Vancouver Center
01:34AM 51.2833 -133.0167 144° Southeast 460 529 39,000  Level Vancouver Center
01:35AM 51.1667 -132.9000 148° Southeast 460 529 39,000  Level Vancouver Center
01:36AM 51.0667 -132.8000 148° Southeast 460 529 39,000  Level Vancouver Center
01:37AM 50.9500 -132.7000 152° Southeast 460 529 39,000  Level Vancouver Center
01:38AM 50.8500 -132.5833 144° Southeast 450 518 39,000  Level Vancouver Center
01:39AM 50.7500 -132.4667 144° Southeast 460 529 39,000  Level Vancouver Center
01:40AM 50.6333 -132.3667 151° Southeast 460 529 39,000  Level Vancouver Center
01:41AM 50.5333 -132.2667 148° Southeast 460 529 39,000  Level Vancouver Center
01:42AM 50.4333 -132.1500 143° Southeast 460 529 39,000  Level Vancouver Center
01:43AM 50.3167 -132.0500 151° Southeast 460 529 39,000  Level Vancouver Center
01:44AM 50.2000 -131.9500 151° Southeast 460 529 39,000  Level Vancouver Center
01:45AM 50.1000 -131.8500 147° Southeast 460 529 39,000  Level Vancouver Center
01:46AM 50.0000 -131.7500 147° Southeast 450 518 39,000  Level Vancouver Center
01:47AM 49.8833 -131.6333 147° Southeast 450 518 39,000  Level Vancouver Center
01:48AM 49.7833 -131.5667 157° South 450 518 39,000  Level Vancouver Center
01:49AM 49.6667 -131.4500 147° Southeast 450 518 39,000  Level Vancouver Center
01:50AM 49.5500 -131.3667 155° Southeast 450 518 39,000  Level Vancouver Center
01:51AM 49.4500 -131.2500 143° Southeast 450 518 39,000  Level Vancouver Center
01:52AM 49.3333 -131.1667 155° Southeast 450 518 39,000  Level Vancouver Center
01:53AM 49.2333 -131.0667 147° Southeast 460 529 39,000  Level Vancouver Center
01:54AM 49.1167 -130.9667 151° Southeast 450 518 39,000  Level Vancouver Center
01:55AM 49.0000 -130.8833 155° Southeast 460 529 39,000  Level Vancouver Center
01:56AM 48.9000 -130.7833 147° Southeast 460 529 39,000  Level Vancouver Center
01:57AM 48.7833 -130.7000 155° Southeast 460 529 39,000  Level Vancouver Center
01:58AM 48.6667 -130.6000 150° Southeast 460 529 39,000  Level Vancouver Center
01:59AM 48.5500 -130.5167 155° Southeast 460 529 39,000  Level Vancouver Center
02:00AM 48.4500 -130.4167 146° Southeast 460 529 39,000  Level Vancouver Center
02:01AM 48.3333 -130.3333 155° Southeast 460 529 39,000  Level Vancouver Center
02:02AM 48.2167 -130.2333 150° Southeast 460 529 39,000  Level Vancouver Center
02:03AM 48.1167 -130.1500 151° Southeast 460 529 39,000  Level Vancouver Center
02:04AM 48.0000 -130.0333 146° Southeast 460 529 39,000  Level Vancouver Center
02:05AM 47.8833 -129.9500 154° Southeast 460 529 39,000  Level Vancouver Center
02:06AM 47.7667 -129.8667 154° Southeast 460 529 39,000  Level Vancouver Center
02:07AM 47.6667 -129.7667 146° Southeast 450 518 39,000  Level Vancouver Center
02:07AM 47.6667 -129.7500 152° Southeast 458 527 39,000  Level Oakland Oceanic (ODAPS)
02:08AM 47.5500 -129.6833 152° Southeast 450 518 39,000  Level Vancouver Center
02:09AM 47.4333 -129.6000 154° Southeast 440 506 39,000  Level Vancouver Center
02:10AM 47.3500 -129.5167 146° Southeast 440 506 39,000  Level Vancouver Center
02:11AM 47.2333 -129.4333 154° Southeast 460 529 39,000  Level Vancouver Center
02:12AM 47.1167 -129.3333 150° Southeast 450 518 39,000  Level Vancouver Center
02:13AM 47.0000 -129.2500 154° Southeast 460 529 39,000  Level Vancouver Center
02:13AM 47.0000 -129.2333 152° Southeast 459 528 39,000  Level Oakland Oceanic (ODAPS)
02:14AM 46.9000 -129.2000 152° Southeast 450 518 39,000  Level Vancouver Center
02:15AM 46.8000 -129.1167 150° Southeast 450 518 39,000  Level Vancouver Center
02:16AM 46.6833 -129.0000 146° Southeast 450 518 39,000  Level Vancouver Center
02:17AM 46.5667 -128.9167 154° Southeast 460 529 39,000  Level Vancouver Center
02:18AM 46.4500 -128.8333 154° Southeast 470 541 39,000  Level Vancouver Center
02:19AM 46.3500 -128.7500 150° Southeast 460 529 39,000  Level Vancouver Center
02:25AM 45.6840 -128.2330 150° Southeast 451 519 39,000  Level FlightAware
02:25AM 45.6210 -128.1870 153° Southeast 452 520 39,000  Level FlightAware
02:26AM 45.5350 -128.1250 153° Southeast 452 520 39,000  Level FlightAware
02:27AM 45.4530 -128.0650 153° Southeast 451 519 39,000  Level FlightAware
02:27AM 45.3790 -128.0110 153° Southeast 452 520 39,000  Level FlightAware
02:27AM 45.4500 -128.0667 153° Southeast 453 521 39,000  Level Oakland Oceanic (ODAPS)
02:28AM 45.3333 -128.0000 153° Southeast 450 518 39,000  Level Vancouver Center
02:28AM 45.3050 -127.9570 153° Southeast 452 520 39,000  Level FlightAware
02:29AM 45.2210 -127.8960 153° Southeast 452 520 39,000  Level FlightAware
02:29AM 45.1440 -127.8410 153° Southeast 453 521 39,000  Level FlightAware
02:30AM 45.0810 -127.7960 153° Southeast 453 521 39,000  Level FlightAware
02:31AM 44.9780 -127.7220 153° Southeast 453 521 39,000  Level FlightAware
02:32AM 44.9040 -127.6690 153° Southeast 454 522 39,000  Level FlightAware
02:32AM 44.8410 -127.6250 154° Southeast 454 522 39,000  Level FlightAware
02:33AM 44.7440 -127.5560 153° Southeast 453 521 39,000  Level FlightAware
02:34AM 44.6840 -127.5140 154° Southeast 452 520 39,000  Level FlightAware
02:34AM 44.6210 -127.4690 153° Southeast 452 520 39,000  Level FlightAware
02:35AM 44.5420 -127.4120 153° Southeast 452 520 39,000  Level FlightAware
02:36AM 44.4940 -127.3780 153° Southeast 452 520 39,000  Level FlightAware
02:36AM 44.4150 -127.3210 153° Southeast 452 520 39,000  Level FlightAware
02:37AM 44.2770 -127.2290 154° Southeast 451 519 39,000  Level FlightAware
02:38AM 44.2170 -127.1870 153° Southeast 451 519 39,000  Level FlightAware
02:38AM 44.1540 -127.1420 153° Southeast 451 519 39,000  Level FlightAware
02:39AM 44.0420 -127.0670 154° Southeast 450 518 39,000  Level FlightAware
02:40AM 43.9680 -127.0150 153° Southeast 450 518 39,000  Level FlightAware
02:41AM 43.9000 -126.9667 154° Southeast 457 526 39,000  Level Oakland Oceanic (ODAPS)
02:41AM 43.8900 -126.9630 154° Southeast 449 517 39,000  Level FlightAware
02:41AM 43.8070 -126.9050 153° Southeast 449 517 39,000  Level FlightAware
02:42AM 43.7260 -126.8510 154° Southeast 450 518 39,000  Level FlightAware
02:43AM 43.6690 -126.8110 153° Southeast 450 518 39,000  Level FlightAware
02:44AM 43.5540 -126.7330 154° Southeast 451 519 39,000  Level FlightAware
02:44AM 43.4910 -126.6880 153° Southeast 451 519 39,000  Level FlightAware
02:45AM 43.4280 -126.6440 153° Southeast 451 519 39,000  Level FlightAware
02:46AM 43.3490 -126.5890 153° Southeast 451 519 39,000  Level FlightAware
02:46AM 43.2860 -126.5440 154° Southeast 451 519 39,000  Level FlightAware
02:47AM 43.2220 -126.5000 153° Southeast 451 519 39,000  Level FlightAware
02:48AM 43.1590 -126.4560 153° Southeast 451 519 39,000  Level FlightAware
02:48AM 43.0960 -126.4120 153° Southeast 451 519 39,000  Level FlightAware
02:49AM 43.0170 -126.3570 153° Southeast 451 519 39,000  Level FlightAware
02:50AM 42.9540 -126.3130 153° Southeast 451 519 39,000  Level FlightAware
02:51AM 42.8900 -126.2690 153° Southeast 451 519 39,000  Level FlightAware
02:51AM 42.8270 -126.2250 153° Southeast 451 519 39,000  Level FlightAware
02:52AM 42.7640 -126.1810 153° Southeast 451 519 39,000  Level FlightAware
02:53AM 42.7420 -125.6750 93° East 456 525 39,000  Level FlightAware
02:53AM 42.6690 -125.5740 134° Southeast 456 525 39,000  Level FlightAware
02:54AM 42.6010 -125.4810 135° Southeast 458 527 39,000  Level FlightAware
02:55AM 42.5430 -125.4000 134° Southeast 458 527 39,000  Level FlightAware
02:56AM 42.4930 -125.3290 134° Southeast 458 527 39,000  Level FlightAware
02:56AM 42.4430 -125.2590 134° Southeast 458 527 39,000  Level FlightAware
02:57AM 42.3930 -125.1890 134° Southeast 458 527 39,000  Level FlightAware
02:58AM 42.3300 -125.1010 134° Southeast 458 527 39,000  Level FlightAware
02:58AM 42.2800 -125.0310 134° Southeast 458 527 39,000  Level FlightAware
02:59AM 42.2300 -124.9610 134° Southeast 458 527 39,000  Level FlightAware
03:00AM 42.1740 -124.8820 134° Southeast 458 527 39,000  Level FlightAware
03:00AM 42.1240 -124.8130 134° Southeast 458 527 39,000  Level FlightAware
03:01AM 42.0740 -124.7430 134° Southeast 458 527 39,000  Level FlightAware
03:02AM 42.0240 -124.6730 134° Southeast 458 527 39,000  Level FlightAware
03:02AM 41.9740 -124.6030 134° Southeast 458 527 39,000  Level FlightAware
03:03AM 41.9110 -124.5160 134° Southeast 458 527 39,000  Level FlightAware
03:04AM 41.8610 -124.4470 134° Southeast 458 527 39,000  Level FlightAware
03:07AM 41.4430 -123.9310 137° Southeast 458 527 39,000  Level FlightAware
03:08AM 41.3180 -123.7700 136° Southeast 458 527 39,000  Level FlightAware
03:09AM 41.2540 -123.6850 135° Southeast 458 527 39,000  Level FlightAware
03:10AM 41.1820 -123.6360 153° Southeast 39,000  Level FlightAware
03:11AM 41.0780 -123.5460 147° Southeast 465 535 39,000  Level FlightAware
03:12AM 40.9600 -123.4420 146° Southeast 466 536 39,000  Level FlightAware
03:12AM 40.9080 -123.3960 146° Southeast 465 535 39,000  Level FlightAware
03:13AM 40.8030 -123.3060 147° Southeast 465 535 39,000  Level FlightAware
03:14AM 40.7060 -123.2220 147° Southeast 464 534 39,000  Level FlightAware
03:15AM 40.6230 -123.1510 147° Southeast 466 536 39,000  Level FlightAware
03:15AM 40.5520 -123.0910 147° Southeast 459 528 39,000  Level FlightAware
03:16AM 40.4470 -122.9990 146° Southeast 465 535 39,000  Level FlightAware
03:18AM 40.2530 -122.8350 147° Southeast 464 534 39,000  Level FlightAware
03:19AM 40.1890 -122.7800 147° Southeast 464 534 39,000  Level FlightAware
03:20AM 40.0990 -122.7060 148° Southeast 463 533 39,000  Level FlightAware
03:21AM 40.0010 -122.6220 147° Southeast 463 533 39,000  Level FlightAware
03:21AM 39.9270 -122.5600 147° Southeast 462 532 39,000  Level FlightAware
03:22AM 39.8460 -122.4920 147° Southeast 461 531 39,000  Level FlightAware
03:23AM 39.7210 -122.3880 147° Southeast 461 531 39,000  Level FlightAware
03:24AM 39.6660 -122.3430 148° Southeast 461 531 39,000  Level FlightAware
03:24AM 39.5770 -122.2680 147° Southeast 460 529 39,000  Level FlightAware
03:25AM 39.4690 -122.1790 148° Southeast 460 529 39,000  Level FlightAware
03:26AM 39.4060 -122.1270 147° Southeast 461 531 39,000  Level FlightAware
03:27AM 39.3250 -122.0610 148° Southeast 459 528 39,000  Level FlightAware
03:28AM 39.2170 -121.9720 147° Southeast 461 531 39,000  Level FlightAware
03:28AM 39.1450 -121.9130 148° Southeast 460 529 39,000  Level FlightAware
03:29AM 39.0620 -121.8460 148° Southeast 460 529 39,000  Level FlightAware
03:30AM 38.9350 -121.7430 148° Southeast 457 526 39,000  Level FlightAware
03:31AM 38.8820 -121.7000 148° Southeast 459 528 39,000  Level FlightAware
03:32AM 38.7910 -121.6260 148° Southeast 460 529 39,000  Level FlightAware
03:33AM 38.6920 -121.5460 148° Southeast 471 542 39,000  Level FlightAware
03:33AM 38.6250 -121.4930 148° Southeast 474 545 39,000  Level FlightAware
03:34AM 38.5320 -121.4180 148° Southeast 479 551 39,000  Level FlightAware
03:35AM 38.4220 -121.3280 147° Southeast 484 557 39,000  Level FlightAware
03:36AM 38.3420 -121.2600 146° Southeast 482 555 39,000  Level FlightAware
03:36AM 38.2660 -121.1970 147° Southeast 485 558 39,000  Level FlightAware
03:37AM 38.1910 -121.1350 147° Southeast 486 559 39,000  Level FlightAware
03:38AM 38.1150 -121.0720 147° Southeast 484 557 39,000  Level FlightAware
03:38AM 38.0300 -121.0010 147° Southeast 480 552 39,000  Level FlightAware
03:39AM 37.9490 -120.9340 147° Southeast 479 551 39,000  Level FlightAware
03:40AM 37.8810 -120.8780 147° Southeast 479 551 39,000  Level FlightAware
03:41AM 37.7770 -120.7920 147° Southeast 485 558 39,000  Level FlightAware
03:41AM 37.7020 -120.7310 147° Southeast 485 558 39,000  Level FlightAware
03:42AM 37.6310 -120.6720 147° Southeast 483 556 39,000  Level FlightAware
03:43AM 37.5490 -120.6040 147° Southeast 482 555 39,000  Level FlightAware
03:43AM 37.4620 -120.5340 147° Southeast 483 556 39,000  Level FlightAware
03:44AM 37.3600 -120.4520 147° Southeast 484 557 39,000  Level FlightAware
03:45AM 37.2840 -120.3910 147° Southeast 484 557 39,000  Level FlightAware
03:46AM 37.1790 -120.3050 147° Southeast 486 559 39,000  Level FlightAware
03:47AM 37.0730 -120.2200 147° Southeast 487 560 39,000  Level FlightAware
03:48AM 36.9880 -120.1510 147° Southeast 487 560 39,000  Level FlightAware
03:48AM 36.9120 -120.0900 147° Southeast 487 560 39,000  Level FlightAware
03:49AM 36.8250 -120.0220 148° Southeast 488 562 39,000  Level FlightAware
03:50AM 36.7500 -119.9610 147° Southeast 488 562 39,000  Level FlightAware
03:50AM 36.6710 -119.8990 148° Southeast 488 562 39,000  Level FlightAware
03:51AM 36.5850 -119.8310 148° Southeast 488 562 39,000  Level FlightAware
03:52AM 36.5100 -119.7720 148° Southeast 488 562 39,000  Level FlightAware
03:52AM 36.4350 -119.7120 147° Southeast 489 563 39,000  Level FlightAware
03:53AM 36.3470 -119.6430 148° Southeast 488 562 39,000  Level FlightAware
03:54AM 36.2710 -119.5830 148° Southeast 486 559 39,000  Level FlightAware
03:55AM 36.1940 -119.5240 148° Southeast 486 559 39,000  Level FlightAware
03:55AM 36.1110 -119.4600 148° Southeast 484 557 39,000  Level FlightAware
03:56AM 36.0330 -119.3930 145° Southeast 483 556 39,000  Level FlightAware
03:57AM 35.9660 -119.3290 142° Southeast 485 558 39,000  Level FlightAware
03:57AM 35.8840 -119.2500 142° Southeast 487 560 39,000  Level FlightAware
03:58AM 35.8130 -119.1820 142° Southeast 489 563 39,000  Level FlightAware
03:59AM 35.7320 -119.1040 142° Southeast 491 565 39,000  Level FlightAware
03:59AM 35.6630 -119.0370 142° Southeast 492 566 39,000  Level FlightAware
04:00AM 35.5810 -118.9590 142° Southeast 493 567 39,000  Level FlightAware
04:01AM 35.5080 -118.8880 142° Southeast 495 570 39,000  Level FlightAware
04:02AM 35.4280 -118.8120 142° Southeast 498 573 39,000  Level FlightAware
04:02AM 35.3540 -118.7430 143° Southeast 497 572 39,000  Level FlightAware
04:03AM 35.2710 -118.6640 142° Southeast 497 572 39,000 -300 Level FlightAware
04:04AM 35.2010 -118.5980 142° Southeast 476 548 38,600 -1,680 Descending FlightAware
04:04AM 35.1300 -118.5310 142° Southeast 490 564 36,800 -2,880 Descending FlightAware
04:05AM 35.0470 -118.4530 142° Southeast 497 572 34,600 -3,060 Descending FlightAware
04:06AM 34.9760 -118.3860 142° Southeast 497 572 32,500 -3,300 Descending FlightAware
04:07AM 34.8940 -118.3090 142° Southeast 494 568 30,000 -3,180 Descending FlightAware
04:07AM 34.8220 -118.2420 143° Southeast 485 558 28,000 -3,000 Descending FlightAware
04:08AM 34.7500 -118.1740 142° Southeast 483 556 26,000 -2,880 Descending FlightAware
04:09AM 34.6740 -118.1050 143° Southeast 482 555 24,000 -2,880 Descending FlightAware
04:09AM 34.6140 -118.0240 132° Southeast 469 540 22,000 -3,000 Descending FlightAware
04:10AM 34.5710 -117.9310 119° Southeast 457 526 20,000 -3,000 Descending FlightAware
04:11AM 34.5250 -117.8330 120° Southeast 433 498 17,800 -3,360 Descending FlightAware
04:11AM 34.4860 -117.7490 119° Southeast 406 467 15,300 -2,880 Descending FlightAware
04:12AM 34.4510 -117.6710 119° Southeast 385 443 14,000 -1,080 Descending FlightAware
04:13AM 34.4140 -117.5890 119° Southeast 371 427 13,800 -180 Descending FlightAware
04:13AM 34.3840 -117.5240 119° Southeast 321 369 13,800 -900 Level FlightAware
04:14AM 34.3500 -117.4530 120° Southeast 305 351 12,600 -1,920 Descending FlightAware
04:15AM 34.3220 -117.3940 120° Southeast 293 337 11,100 -1,980 Descending FlightAware
04:16AM 34.2930 -117.3440 125° Southeast 278 320 10,000 -1,440 Descending FlightAware
04:16AM 34.2750 -117.3350 158° South 269 310 9,800 -1,500 Descending FlightAware
04:16AM 34.2400 -117.3250 167° South 264 304 8,900 -1,980 Descending FlightAware
04:16AM 34.2280 -117.3200 161° South 257 296 8,500 -1,680 Descending FlightAware
04:17AM 34.1950 -117.3090 165° South 238 274 7,800 -720 Descending FlightAware
04:17AM 34.1610 -117.2990 166° South 235 270 7,800 -240 Level FlightAware
04:18AM 34.1360 -117.2920 167° South 212 244 7,600 -900 Descending FlightAware
04:18AM 34.1280 -117.2920 180° South 218 251 7,300 -2,640 Descending FlightAware
04:18AM 34.1080 -117.3020 202° Southwest 236 272 6,300 -2,160 Descending FlightAware
04:19AM 34.0840 -117.3310 225° Southwest 227 261 5,500 -1,860 Descending FlightAware
04:19AM 34.0670 -117.3530 227° Southwest 230 265 4,600 -1,980 Descending FlightAware
04:20AM 34.0590 -117.3700 240° Southwest 219 252 4,200 -1,200 Descending FlightAware
04:20AM 34.0550 -117.3860 253° West 205 236 4,000 -1,080 Descending FlightAware
04:20AM 34.0540 -117.4140 268° West 181 208 3,500 -1,020 Descending FlightAware
04:21AM 34.0550 -117.4390 273° West 162 186 3,100 -780 Descending FlightAware
04:21AM 34.0550 -117.4440 270° West 159 183 3,000 -600 Descending FlightAware
04:22AM 34.0561 -117.4914 270° West 171 197 2,500 -720 Descending Los Angeles Center
04:23AM 34.0558 -117.5389 270° West 156 180 1,700 -600 Descending Los Angeles Center
04:24AM 34.0547 -117.5819 268° West 151 174 1,400 -300 Descending Los Angeles Center
04:26AM 34.0500 -117.6000 270° West  Level FlightAware Approximate